createdAt,value
2022-10-26T00:02:43.380Z,18.10
2022-10-26T00:08:46.782Z,26.05
2022-10-26T00:14:48.902Z,21.23
2022-10-26T00:20:51.322Z,24.00
2022-10-26T00:26:53.475Z,19.85
2022-10-26T00:32:55.718Z,26.95
2022-10-26T00:38:58.110Z,18.90
2022-10-26T00:45:19.836Z,28.75
2022-10-26T00:51:33.109Z,26.30
2022-10-26T01:04:00.610Z,24.83
2022-10-26T01:10:03.073Z,35.80
2022-10-26T01:16:30.058Z,31.95
2022-10-26T01:22:42.285Z,28.92
2022-10-26T01:29:01.758Z,30.43
2022-10-26T01:35:11.082Z,44.22
2022-10-26T01:41:29.900Z,27.35
2022-10-26T01:47:34.256Z,23.27
2022-10-26T01:53:36.660Z,34.50
2022-10-26T01:59:38.730Z,25.73
2022-10-26T02:06:03.963Z,31.73
2022-10-26T02:12:16.117Z,29.92
2022-10-26T02:18:36.763Z,31.40
2022-10-26T02:24:40.583Z,19.77
2022-10-26T02:30:44.212Z,22.38
2022-10-26T02:36:49.263Z,20.13
2022-10-26T02:42:53.143Z,26.65
2022-10-26T02:48:56.578Z,26.10
2022-10-26T02:55:07.915Z,30.10
2022-10-26T03:01:09.969Z,28.27
2022-10-26T03:07:12.368Z,19.08
2022-10-26T03:13:14.819Z,28.55
2022-10-26T03:19:17.166Z,19.10
2022-10-26T03:25:19.426Z,23.25
2022-10-26T03:31:21.702Z,24.80
2022-10-26T03:37:24.366Z,29.13
2022-10-26T03:49:28.767Z,15.90
2022-10-26T03:55:31.001Z,24.95
2022-10-26T04:01:33.684Z,19.20
2022-10-26T04:13:38.591Z,20.83
2022-10-26T04:19:40.564Z,25.08
2022-10-26T04:25:43.681Z,17.70
2022-10-26T04:31:45.724Z,16.02
2022-10-26T04:37:48.070Z,26.50
2022-10-26T04:43:50.572Z,24.73
2022-10-26T04:49:52.601Z,37.38
2022-10-26T04:55:58.665Z,30.03
2022-10-26T05:02:00.775Z,20.27
2022-10-26T05:14:06.114Z,33.00
2022-10-26T05:20:13.430Z,32.97
2022-10-26T05:26:16.030Z,27.90
2022-10-26T05:38:20.687Z,26.90
2022-10-26T05:44:23.034Z,122.80
2022-10-26T05:50:25.282Z,31.73
2022-10-26T05:56:39.025Z,18.65
2022-10-26T06:03:13.150Z,35.28
2022-10-26T06:09:15.841Z,23.10
2022-10-26T06:22:03.506Z,26.58
2022-10-26T06:28:33.520Z,20.58
2022-10-26T06:34:38.813Z,22.02
2022-10-26T06:40:45.234Z,21.50
2022-10-26T06:47:10.037Z,16.17
2022-10-26T06:53:19.370Z,18.92
2022-10-26T06:59:29.380Z,24.10
2022-10-26T07:05:31.808Z,21.20
2022-10-26T07:17:49.804Z,26.27
2022-10-26T07:23:52.969Z,21.30
2022-10-26T07:29:55.414Z,25.77
2022-10-26T07:35:59.771Z,17.63
2022-10-26T07:42:01.871Z,20.10
2022-10-26T07:48:04.271Z,23.85
2022-10-26T07:54:06.504Z,15.73
2022-10-26T08:00:09.889Z,19.70
2022-10-26T08:06:12.482Z,23.10
2022-10-26T08:12:17.022Z,18.63
2022-10-26T08:18:19.137Z,58.33
2022-10-26T08:24:21.161Z,18.23
2022-10-26T08:36:26.986Z,15.95
2022-10-26T08:42:34.175Z,9.95
2022-10-26T08:48:39.847Z,14.82
2022-10-26T08:54:53.670Z,8.77
2022-10-26T09:00:55.691Z,5.53
2022-10-26T09:07:09.238Z,15.25
2022-10-26T09:13:36.943Z,15.25
2022-10-26T09:20:02.951Z,7.85
2022-10-26T09:26:10.553Z,25.45
2022-10-26T09:32:26.298Z,42.88
2022-10-26T09:38:40.506Z,18.42
2022-10-26T09:44:50.902Z,15.00
2022-10-26T09:50:53.181Z,12.40
2022-10-26T09:56:59.747Z,11.93
2022-10-26T10:03:02.099Z,12.00
2022-10-26T10:09:16.397Z,5.63
2022-10-26T10:15:24.357Z,11.05
2022-10-26T10:21:44.478Z,8.70
2022-10-26T10:27:54.729Z,8.07
2022-10-26T10:33:57.193Z,10.10
2022-10-26T10:40:31.596Z,18.33
2022-10-26T10:46:34.162Z,18.20
2022-10-26T10:52:36.620Z,9.18
2022-10-26T10:58:50.402Z,15.57
2022-10-26T11:05:24.782Z,7.13
2022-10-26T11:11:36.219Z,6.47
2022-10-26T11:17:58.418Z,5.78
2022-10-26T11:24:17.911Z,12.18
2022-10-26T11:30:27.963Z,10.80
2022-10-26T11:36:33.521Z,13.88
2022-10-26T11:42:35.431Z,14.05
2022-10-26T11:48:59.163Z,9.50
2022-10-26T11:55:03.099Z,8.18
2022-10-26T12:01:10.987Z,9.27
2022-10-26T12:07:30.514Z,20.70
2022-10-26T12:13:42.752Z,8.80
2022-10-26T12:26:24.083Z,9.82
2022-10-26T12:32:37.257Z,8.38
2022-10-26T12:38:41.067Z,15.25
2022-10-26T12:44:43.682Z,8.90
2022-10-26T12:50:45.857Z,11.45
2022-10-26T12:57:09.116Z,14.45
2022-10-26T13:03:31.726Z,8.20
2022-10-26T13:09:33.836Z,10.52
2022-10-26T13:15:38.580Z,12.30
2022-10-26T13:21:47.804Z,14.02
2022-10-26T13:28:02.058Z,10.48
2022-10-26T13:34:25.707Z,20.30
2022-10-26T13:40:29.873Z,14.82
2022-10-26T13:46:36.274Z,12.70
2022-10-26T13:52:48.374Z,13.40
2022-10-26T13:59:06.346Z,15.38
2022-10-26T14:05:12.656Z,8.73
2022-10-26T14:11:21.871Z,10.15
2022-10-26T14:17:26.170Z,7.80
2022-10-26T14:23:46.331Z,10.93
2022-10-26T14:30:16.778Z,9.35
2022-10-26T14:36:11.284Z,15.17
2022-10-26T14:42:28.636Z,7.90
2022-10-26T14:48:33.899Z,16.00
2022-10-26T14:54:36.007Z,11.27
2022-10-26T15:00:38.101Z,9.63
2022-10-26T15:06:43.167Z,11.10
2022-10-26T15:12:45.247Z,14.93
2022-10-26T15:18:51.622Z,13.43
2022-10-26T15:24:56.457Z,19.35
2022-10-26T15:31:12.257Z,27.88
2022-10-26T15:37:14.411Z,24.88
2022-10-26T15:43:16.387Z,28.48
2022-10-26T15:49:20.575Z,24.30
2022-10-26T15:55:22.742Z,22.35
2022-10-26T16:01:29.492Z,28.60
2022-10-26T16:07:31.737Z,22.88
2022-10-26T16:13:33.955Z,27.53
2022-10-26T16:19:36.270Z,39.00
2022-10-26T16:25:44.828Z,33.30
2022-10-26T16:31:47.508Z,27.92
2022-10-26T16:37:49.739Z,32.10
2022-10-26T16:43:51.885Z,60.53
2022-10-26T16:49:54.299Z,45.78
2022-10-26T16:56:02.547Z,35.45
2022-10-26T17:02:05.192Z,33.08
2022-10-26T17:08:07.779Z,62.30
2022-10-26T17:14:09.929Z,42.00
2022-10-26T17:20:12.356Z,41.30
2022-10-26T17:26:14.870Z,39.90
2022-10-26T17:32:17.097Z,44.33
2022-10-26T17:38:19.298Z,56.03
2022-10-26T17:44:21.466Z,46.72
2022-10-26T17:50:23.562Z,51.15
2022-10-26T17:56:28.283Z,49.65
2022-10-26T18:02:31.610Z,53.75
2022-10-26T18:08:35.007Z,55.63
2022-10-26T18:14:37.228Z,40.90
2022-10-26T18:20:39.444Z,47.95
2022-10-26T18:26:42.557Z,51.90
2022-10-26T18:32:44.607Z,53.67
2022-10-26T18:38:47.976Z,39.75
2022-10-26T18:44:50.062Z,62.78
2022-10-26T18:50:52.372Z,42.42
2022-10-26T18:56:54.775Z,29.15
2022-10-26T19:02:57.106Z,46.70
2022-10-26T19:08:59.956Z,46.20
2022-10-26T19:15:02.041Z,42.92
2022-10-26T19:21:07.395Z,48.22
2022-10-26T19:27:09.716Z,44.25
2022-10-26T19:33:12.066Z,52.95
2022-10-26T19:39:17.892Z,42.92
2022-10-26T19:45:20.004Z,34.60
2022-10-26T19:51:23.245Z,29.08
2022-10-26T19:57:25.229Z,53.33
2022-10-26T20:03:29.327Z,28.73
2022-10-26T20:09:32.726Z,20.08
2022-10-26T20:15:35.216Z,13.43
2022-10-26T20:21:38.367Z,12.88
2022-10-26T20:27:42.266Z,18.90
2022-10-26T20:33:44.766Z,20.85
2022-10-26T20:39:47.237Z,12.23
2022-10-26T20:45:49.603Z,11.27
2022-10-26T20:52:18.960Z,15.80
2022-10-26T20:58:38.926Z,15.18
2022-10-26T21:04:41.122Z,12.43
2022-10-26T21:10:43.348Z,10.95
2022-10-26T21:16:45.437Z,20.40
2022-10-26T21:22:48.006Z,19.43
2022-10-26T21:34:52.098Z,12.02
2022-10-26T21:41:11.543Z,11.02
2022-10-26T21:47:14.066Z,10.13
2022-10-26T21:53:16.623Z,11.10
2022-10-26T21:59:18.795Z,9.80
2022-10-26T22:05:20.961Z,12.55
2022-10-26T22:11:25.010Z,13.50
2022-10-26T22:17:27.316Z,6.63
2022-10-26T22:23:29.600Z,7.85
2022-10-26T22:29:31.818Z,8.25
2022-10-26T22:35:33.986Z,8.63
2022-10-26T22:41:36.003Z,15.00
2022-10-26T22:47:37.954Z,11.33
2022-10-26T22:53:39.987Z,8.53
2022-10-26T22:59:41.952Z,11.60
2022-10-26T23:05:48.243Z,6.40
2022-10-26T23:11:50.299Z,7.95
2022-10-26T23:17:54.038Z,14.50
2022-10-26T23:23:56.674Z,10.50
2022-10-26T23:36:01.815Z,7.50
2022-10-26T23:42:03.863Z,4.15
2022-10-26T23:48:06.100Z,9.80
2022-10-26T23:54:08.238Z,6.47
